Time;durP1;ratioP1;P1;durP2;ratioP2;P2;SDS_P1;SDS_P2;PMS_P1;PMS_P2;Temp;Humidity;BMP_temperature;BMP_pressure;BME280_temperature;BME280_humidity;BME280_pressure;Samples;Min_cycle;Max_cycle;Signal;HPM_P1;HPM_P2
2022/08/06 00:01:40;;;;;;;2.40;1.10;;;13.80;99.90;;;;;;5042029;28;20036;-69
2022/08/06 00:04:05;;;;;;;1.63;0.75;;;13.80;99.90;;;;;;5040375;28;20064;-70
2022/08/06 00:06:31;;;;;;;1.60;0.68;;;13.80;99.90;;;;;;5042733;28;20056;-69
2022/08/06 00:08:57;;;;;;;;;;;13.80;99.90;;;;;;5041387;28;20406;-69
2022/08/06 00:11:22;;;;;;;2.03;0.68;;;13.80;99.90;;;;;;5038300;28;20386;-70
2022/08/06 00:13:48;;;;;;;;;;;14.00;99.90;;;;;;5040183;28;20044;-69
2022/08/06 00:16:13;;;;;;;1.92;0.80;;;13.80;99.90;;;;;;5041335;28;19999;-70
2022/08/06 00:18:39;;;;;;;;;;;13.80;99.90;;;;;;5042108;28;20032;-70
2022/08/06 00:21:05;;;;;;;1.27;0.60;;;13.70;99.90;;;;;;5039636;28;19971;-70
2022/08/06 00:23:30;;;;;;;1.48;0.50;;;13.70;99.90;;;;;;5041543;28;20370;-70
2022/08/06 00:25:56;;;;;;;1.00;0.60;;;13.60;99.90;;;;;;5038064;28;20041;-70
2022/08/06 00:28:23;;;;;;;3.30;0.70;;;13.60;99.90;;;;;;5039378;28;20492;-70
2022/08/06 00:30:49;;;;;;;3.83;0.70;;;13.60;99.90;;;;;;5042745;28;20072;-70
2022/08/06 00:33:14;;;;;;;1.77;0.73;;;13.60;99.90;;;;;;5039011;28;20069;-70
2022/08/06 00:35:40;;;;;;;;;;;13.60;99.90;;;;;;5043569;28;20463;-69
2022/08/06 00:38:05;;;;;;;1.63;0.70;;;13.50;99.90;;;;;;5041056;28;20015;-70
2022/08/06 00:40:32;;;;;;;3.05;0.88;;;13.40;99.90;;;;;;5039996;28;20095;-70
2022/08/06 00:42:59;;;;;;;2.45;0.70;;;13.40;99.90;;;;;;5040875;28;20072;-70
2022/08/06 00:45:25;;;;;;;2.60;0.80;;;13.40;99.90;;;;;;5039794;28;20041;-70
2022/08/06 00:47:54;;;;;;;;;;;13.30;99.90;;;;;;5040603;28;20389;-68
2022/08/06 00:50:19;;;;;;;1.52;0.60;;;13.30;99.90;;;;;;5041826;28;19928;-69
2022/08/06 00:52:46;;;;;;;;;;;13.20;99.90;;;;;;5040788;28;20047;-69
2022/08/06 00:55:12;;;;;;;1.60;0.70;;;13.20;99.90;;;;;;5040452;28;19920;-69
2022/08/06 00:57:38;;;;;;;1.23;0.73;;;13.10;99.90;;;;;;5038993;28;20481;-69
2022/08/06 01:00:06;;;;;;;1.90;0.70;;;13.10;99.90;;;;;;5041988;28;20049;-69
2022/08/06 01:02:32;;;;;;;1.10;0.68;;;13.10;99.90;;;;;;5037834;28;20149;-69
2022/08/06 01:04:57;;;;;;;1.45;0.60;;;13.00;99.90;;;;;;5041143;28;20045;-69
2022/08/06 01:07:23;;;;;;;;;;;13.00;99.90;;;;;;5042661;28;20480;-68
2022/08/06 01:09:49;;;;;;;1.83;0.68;;;13.00;99.90;;;;;;5038949;28;20380;-68
2022/08/06 01:12:15;;;;;;;;;;;12.90;99.90;;;;;;5043566;28;20047;-69
2022/08/06 01:14:41;;;;;;;2.92;1.00;;;12.80;99.90;;;;;;5038341;28;19928;-69
2022/08/06 01:17:33;;;;;;;1.08;0.70;;;12.80;99.90;;;;;;5041576;28;20037;-69
2022/08/06 01:20:40;;;;;;;1.50;0.70;;;12.80;99.90;;;;;;5039021;28;20046;-69
2022/08/06 01:23:52;;;;;;;1.87;0.80;;;12.70;99.90;;;;;;5018586;28;20370;-68
2022/08/06 01:26:23;;;;;;;1.85;0.90;;;12.60;99.90;;;;;;5040378;28;20474;-68
2022/08/06 01:28:57;;;;;;;2.42;0.90;;;12.60;99.90;;;;;;5042253;28;20041;-67
2022/08/06 01:31:44;;;;;;;2.60;0.85;;;12.60;99.90;;;;;;5040378;28;20042;-67
2022/08/06 01:34:30;;;;;;;1.20;0.60;;;12.50;99.90;;;;;;5037089;28;20409;-68
2022/08/06 01:37:09;;;;;;;2.93;0.80;;;12.50;99.90;;;;;;5037867;28;20076;-68
2022/08/06 01:39:37;;;;;;;2.30;0.70;;;12.50;99.90;;;;;;5035384;28;20609;-67
2022/08/06 01:42:04;;;;;;;0.88;0.70;;;12.50;99.90;;;;;;5042510;28;20079;-68
2022/08/06 01:44:37;;;;;;;3.50;1.00;;;12.50;99.90;;;;;;5039576;28;20041;-69
2022/08/06 01:47:08;;;;;;;2.00;0.80;;;12.40;99.90;;;;;;5037473;28;20163;-69
2022/08/06 01:49:36;;;;;;;2.47;0.90;;;12.40;99.90;;;;;;5033646;28;20041;-68
2022/08/06 01:52:03;;;;;;;1.20;0.80;;;12.40;99.90;;;;;;5040231;28;20389;-69
2022/08/06 01:54:34;;;;;;;2.20;1.00;;;12.40;99.90;;;;;;5039449;28;20481;-69
2022/08/06 01:57:01;;;;;;;2.58;1.05;;;12.40;99.90;;;;;;5040654;28;20049;-69
2022/08/06 01:59:34;;;;;;;2.42;1.00;;;12.40;99.90;;;;;;5039079;28;20042;-68
2022/08/06 02:02:05;;;;;;;1.65;0.93;;;12.40;99.90;;;;;;5032954;28;20140;-69
2022/08/06 02:04:37;;;;;;;1.70;0.90;;;12.40;99.90;;;;;;5034426;28;20551;-68
2022/08/06 02:07:08;;;;;;;2.53;0.90;;;12.30;99.90;;;;;;5039297;28;20049;-68
2022/08/06 02:09:35;;;;;;;2.25;1.15;;;12.30;99.90;;;;;;5038140;28;20523;-69
2022/08/06 02:12:09;;;;;;;1.75;0.80;;;12.30;99.90;;;;;;5037681;28;20069;-69
2022/08/06 02:14:40;;;;;;;2.72;1.00;;;12.20;99.90;;;;;;5039852;28;20083;-67
2022/08/06 02:17:07;;;;;;;2.58;1.02;;;12.30;99.90;;;;;;5041399;28;20053;-67
2022/08/06 02:19:33;;;;;;;2.83;1.20;;;12.20;99.90;;;;;;5044328;28;20076;-67
2022/08/06 02:22:01;;;;;;;2.33;1.00;;;12.30;99.90;;;;;;5038533;28;20099;-68
2022/08/06 02:24:29;;;;;;;2.03;1.20;;;12.20;99.90;;;;;;5044519;28;20115;-68
2022/08/06 02:26:58;;;;;;;3.08;1.10;;;12.20;99.90;;;;;;5040112;28;20403;-68
2022/08/06 02:29:25;;;;;;;1.52;0.90;;;12.10;99.90;;;;;;5045652;28;20055;-68
2022/08/06 02:31:51;;;;;;;2.03;1.00;;;12.10;99.90;;;;;;5042550;28;20057;-68
2022/08/06 02:34:21;;;;;;;2.92;0.90;;;12.10;99.90;;;;;;5042043;28;20098;-68
2022/08/06 02:36:58;;;;;;;1.50;0.85;;;12.10;99.90;;;;;;5043301;28;20041;-67
2022/08/06 02:39:33;;;;;;;1.88;0.98;;;12.10;99.90;;;;;;5041098;28;20534;-69
2022/08/06 02:42:15;;;;;;;2.40;1.00;;;12.10;99.90;;;;;;5038566;28;20065;-69
2022/08/06 02:45:02;;;;;;;1.65;1.00;;;12.10;99.90;;;;;;5040803;28;20045;-69
2022/08/06 02:47:37;;;;;;;2.33;1.00;;;12.10;99.90;;;;;;5036659;28;20366;-69
2022/08/06 02:50:05;;;;;;;1.88;1.00;;;12.10;99.90;;;;;;5038582;28;20060;-68
2022/08/06 02:52:40;;;;;;;1.95;0.88;;;12.10;99.90;;;;;;5045034;28;20045;-68
2022/08/06 02:55:11;;;;;;;5.32;1.10;;;12.10;99.90;;;;;;5042436;28;20444;-69
2022/08/06 02:57:45;;;;;;;2.70;1.10;;;12.10;99.90;;;;;;5043816;28;20048;-69
2022/08/06 03:00:11;;;;;;;3.65;1.30;;;12.20;99.90;;;;;;5042516;28;20053;-69
2022/08/06 03:02:39;;;;;;;2.15;1.23;;;12.30;99.90;;;;;;5040186;28;20038;-69
2022/08/06 03:05:08;;;;;;;2.15;1.10;;;12.40;99.90;;;;;;5043416;28;20056;-68
2022/08/06 03:07:38;;;;;;;2.33;1.00;;;12.50;99.90;;;;;;5042260;28;20072;-69
2022/08/06 03:10:06;;;;;;;1.90;1.00;;;12.50;99.90;;;;;;5043912;28;20045;-68
2022/08/06 03:12:35;;;;;;;1.70;1.00;;;12.60;99.90;;;;;;5041572;28;20076;-69
2022/08/06 03:15:02;;;;;;;4.43;1.30;;;12.60;99.90;;;;;;5043041;28;20045;-69
2022/08/06 03:17:30;;;;;;;2.35;1.00;;;12.50;99.90;;;;;;5040409;28;20099;-69
2022/08/06 03:19:58;;;;;;;2.35;1.20;;;12.50;99.90;;;;;;5040129;28;20041;-68
2022/08/06 03:22:25;;;;;;;2.88;1.13;;;12.40;99.90;;;;;;5039860;28;20543;-69
2022/08/06 03:24:52;;;;;;;2.55;1.20;;;12.60;99.90;;;;;;5044570;28;20033;-69
2022/08/06 03:27:20;;;;;;;1.90;1.23;;;12.30;99.90;;;;;;5037988;28;20041;-69
2022/08/06 03:29:48;;;;;;;2.03;1.00;;;12.30;99.90;;;;;;5043989;28;20041;-69
2022/08/06 03:32:18;;;;;;;3.70;1.33;;;12.30;99.90;;;;;;5041181;28;20046;-69
2022/08/06 03:34:44;;;;;;;3.38;1.25;;;12.20;99.90;;;;;;5039529;28;20049;-68
2022/08/06 03:37:10;;;;;;;3.20;1.38;;;12.20;99.90;;;;;;5042030;28;20071;-69
2022/08/06 03:39:37;;;;;;;;;;;12.20;99.90;;;;;;5042795;28;20492;-69
2022/08/06 03:42:03;;;;;;;3.03;1.10;;;12.10;99.90;;;;;;5042862;28;19966;-69
2022/08/06 03:44:28;;;;;;;;;;;12.10;99.90;;;;;;5041178;28;20037;-69
2022/08/06 03:47:09;;;;;;;1.88;0.90;;;12.10;99.90;;;;;;5040247;28;20333;-69
2022/08/06 03:49:48;;;;;;;2.00;1.10;;;12.10;99.90;;;;;;5041396;28;20435;-69
2022/08/06 03:52:19;;;;;;;2.15;1.20;;;12.00;99.90;;;;;;5035597;28;20045;-69
2022/08/06 03:54:49;;;;;;;1.75;1.00;;;12.00;99.90;;;;;;5035563;28;20064;-69
2022/08/06 03:57:22;;;;;;;1.75;1.15;;;12.00;99.90;;;;;;5035100;28;20115;-69
2022/08/06 03:59:51;;;;;;;2.60;1.40;;;11.90;99.90;;;;;;5036556;28;20048;-69
2022/08/06 04:02:18;;;;;;;2.28;1.30;;;11.90;99.90;;;;;;5042817;28;20045;-69
2022/08/06 04:04:45;;;;;;;2.72;1.25;;;11.90;99.90;;;;;;5038149;28;20102;-69
2022/08/06 04:07:14;;;;;;;2.17;1.17;;;11.90;99.90;;;;;;5039249;28;20045;-68
2022/08/06 04:09:43;;;;;;;2.08;1.20;;;11.90;99.90;;;;;;5042461;28;20631;-69
2022/08/06 04:12:09;;;;;;;1.75;1.02;;;11.90;99.90;;;;;;5039802;28;20092;-69
2022/08/06 04:14:35;;;;;;;;;;;11.80;99.90;;;;;;5042241;28;20041;-69
2022/08/06 04:17:05;;;;;;;3.03;1.20;;;11.90;99.90;;;;;;5040348;28;19932;-69
2022/08/06 04:19:33;;;;;;;1.85;1.00;;;11.80;99.90;;;;;;5041407;28;20474;-69
2022/08/06 04:21:59;;;;;;;2.33;1.30;;;11.80;99.90;;;;;;5039123;28;20041;-69
2022/08/06 04:24:24;;;;;;;;;;;11.80;99.90;;;;;;5040722;28;20362;-69
2022/08/06 04:26:53;;;;;;;1.70;1.10;;;11.90;99.90;;;;;;5040467;28;19964;-69
2022/08/06 04:29:21;;;;;;;3.25;1.20;;;11.90;99.90;;;;;;5041148;28;20041;-69
2022/08/06 04:31:50;;;;;;;3.40;1.40;;;12.00;99.90;;;;;;5042975;28;20043;-69
2022/08/06 04:34:23;;;;;;;3.08;1.25;;;12.10;99.90;;;;;;5038083;28;20507;-69
2022/08/06 04:36:50;;;;;;;3.65;1.35;;;12.30;99.90;;;;;;5040379;28;20061;-69
2022/08/06 04:39:16;;;;;;;2.53;1.48;;;12.40;99.90;;;;;;5040762;28;20485;-69
2022/08/06 04:41:42;;;;;;;2.75;1.45;;;12.40;99.90;;;;;;5040866;28;20041;-69
2022/08/06 04:44:08;;;;;;;;;;;12.50;99.90;;;;;;5043580;28;20462;-69
2022/08/06 04:46:34;;;;;;;2.58;1.25;;;12.60;99.90;;;;;;5039118;28;19925;-69
2022/08/06 04:49:00;;;;;;;4.22;1.27;;;12.60;99.90;;;;;;5037487;28;20029;-69
2022/08/06 04:51:25;;;;;;;;;;;12.60;99.90;;;;;;5042511;28;20037;-69
2022/08/06 04:53:51;;;;;;;2.72;1.20;;;12.70;99.90;;;;;;5039220;28;19948;-69
2022/08/06 04:56:16;;;;;;;;;;;12.70;99.90;;;;;;5041517;28;20125;-69
2022/08/06 04:58:42;;;;;;;3.10;1.50;;;12.70;99.90;;;;;;5042407;28;20277;-69
2022/08/06 05:01:08;;;;;;;2.78;1.27;;;12.80;99.90;;;;;;5037519;28;20045;-69
2022/08/06 05:03:33;;;;;;;;;;;12.80;99.90;;;;;;5041564;28;20116;-69
2022/08/06 05:06:11;;;;;;;2.55;1.35;;;12.90;99.90;;;;;;5041200;28;19920;-69
2022/08/06 05:08:41;;;;;;;2.38;1.20;;;12.90;99.90;;;;;;5035266;28;20041;-69
2022/08/06 05:11:30;;;;;;;3.70;1.20;;;13.10;99.90;;;;;;5041174;28;20401;-69
2022/08/06 05:14:03;;;;;;;3.13;1.23;;;13.20;99.90;;;;;;5042544;28;20098;-69
2022/08/06 05:16:33;;;;;;;3.67;1.85;;;13.30;99.90;;;;;;5037160;28;20049;-69
2022/08/06 05:19:03;;;;;;;3.45;1.20;;;13.40;99.90;;;;;;5035149;28;20565;-69
2022/08/06 05:21:33;;;;;;;3.92;1.40;;;13.50;99.90;;;;;;5033874;28;20164;-69
2022/08/06 05:24:00;;;;;;;2.20;1.00;;;13.50;99.90;;;;;;5034512;28;20494;-69
2022/08/06 05:26:25;;;;;;;2.63;1.10;;;13.60;99.90;;;;;;5041296;28;20041;-69
2022/08/06 05:28:51;;;;;;;;;;;13.70;99.90;;;;;;5038452;28;20053;-69
2022/08/06 05:31:31;;;;;;;1.88;1.00;;;13.90;99.90;;;;;;5041641;28;20343;-69
2022/08/06 05:33:57;;;;;;;3.13;1.20;;;14.00;99.90;;;;;;5036332;28;20136;-69
2022/08/06 05:36:22;;;;;;;;;;;14.10;99.90;;;;;;5039439;28;20121;-69
2022/08/06 05:38:48;;;;;;;3.10;0.90;;;14.20;99.90;;;;;;5042500;28;19925;-69
2022/08/06 05:41:13;;;;;;;;;;;14.30;99.90;;;;;;5039534;28;20052;-69
2022/08/06 05:43:40;;;;;;;2.38;1.02;;;14.50;99.90;;;;;;5042181;28;19991;-69
2022/08/06 05:46:12;;;;;;;2.35;0.90;;;14.60;99.90;;;;;;5043712;28;20040;-69
2022/08/06 05:48:48;;;;;;;3.03;1.20;;;14.80;99.90;;;;;;5042437;28;20144;-69
2022/08/06 05:51:24;;;;;;;2.50;1.02;;;14.80;99.90;;;;;;5041416;28;20481;-69
2022/08/06 05:53:56;;;;;;;2.83;1.15;;;15.00;99.90;;;;;;5041728;28;20049;-70
2022/08/06 05:56:27;;;;;;;5.32;1.60;;;15.20;99.90;;;;;;5038252;28;20116;-69
2022/08/06 05:58:59;;;;;;;3.83;1.63;;;15.10;99.90;;;;;;5041220;28;20037;-69
2022/08/06 06:01:25;;;;;;;3.45;1.58;;;15.20;99.90;;;;;;5039356;28;20037;-69
2022/08/06 06:03:56;;;;;;;2.80;1.38;;;15.20;99.90;;;;;;5040573;28;20131;-69
2022/08/06 06:06:22;;;;;;;4.00;1.40;;;15.30;99.90;;;;;;5037656;28;20041;-69
2022/08/06 06:08:48;;;;;;;4.70;1.60;;;15.30;99.90;;;;;;5046434;28;20037;-69
2022/08/06 06:11:16;;;;;;;3.25;1.63;;;15.30;99.90;;;;;;5042668;28;20048;-69
2022/08/06 06:13:43;;;;;;;4.22;1.90;;;15.40;99.90;;;;;;5043744;28;20041;-69
2022/08/06 06:16:18;;;;;;;4.85;1.45;;;15.30;99.90;;;;;;5043437;28;20099;-69
2022/08/06 06:18:59;;;;;;;4.05;2.08;;;15.40;99.90;;;;;;5043592;28;20053;-69
2022/08/06 06:21:30;;;;;;;4.18;1.52;;;15.40;99.90;;;;;;5038831;28;20052;-68
2022/08/06 06:24:18;;;;;;;3.50;1.50;;;15.40;99.90;;;;;;5044267;28;20055;-69
2022/08/06 06:26:50;;;;;;;3.13;1.50;;;15.40;99.90;;;;;;5042961;28;20033;-69
2022/08/06 06:29:40;;;;;;;3.55;1.67;;;15.40;99.90;;;;;;5045748;28;20044;-69
2022/08/06 06:32:12;;;;;;;4.07;1.50;;;15.40;99.90;;;;;;5041415;28;20517;-69
2022/08/06 06:34:57;;;;;;;4.53;1.58;;;15.50;99.90;;;;;;5043797;28;20029;-68
2022/08/06 06:37:39;;;;;;;5.32;1.45;;;15.40;99.90;;;;;;5038393;28;20660;-69
2022/08/06 06:40:35;;;;;;;3.30;1.45;;;15.50;99.90;;;;;;5042385;28;20044;-68
2022/08/06 06:43:05;;;;;;;3.60;1.90;;;15.50;99.90;;;;;;5038706;28;20045;-69
2022/08/06 06:45:37;;;;;;;3.70;1.50;;;15.60;99.90;;;;;;5042914;28;20393;-69
2022/08/06 06:48:16;;;;;;;3.35;1.58;;;15.60;99.90;;;;;;5042274;28;20132;-69
2022/08/06 06:50:47;;;;;;;3.60;1.67;;;15.70;99.90;;;;;;5042570;28;20168;-69
2022/08/06 06:53:15;;;;;;;4.57;1.70;;;15.80;99.90;;;;;;5036889;28;20056;-69
2022/08/06 06:55:45;;;;;;;3.33;1.40;;;15.90;99.90;;;;;;5045422;28;20144;-69
2022/08/06 06:58:18;;;;;;;3.65;1.60;;;15.90;99.90;;;;;;5043877;28;20392;-70
2022/08/06 07:00:45;;;;;;;4.15;1.60;;;16.00;99.90;;;;;;5036620;28;20053;-70
2022/08/06 07:03:12;;;;;;;2.58;1.40;;;16.10;99.90;;;;;;5043471;28;20216;-69
2022/08/06 07:05:43;;;;;;;4.65;1.48;;;16.10;99.90;;;;;;5042342;28;20096;-70
2022/08/06 07:08:11;;;;;;;4.63;1.60;;;16.20;99.90;;;;;;5043990;28;20041;-70
2022/08/06 07:10:39;;;;;;;3.63;1.30;;;16.30;99.90;;;;;;5041294;28;20043;-70
2022/08/06 07:13:05;;;;;;;4.47;1.75;;;16.40;99.90;;;;;;5041209;28;20084;-69
2022/08/06 07:15:32;;;;;;;4.00;1.60;;;16.50;99.90;;;;;;5041987;28;20099;-70
2022/08/06 07:17:58;;;;;;;3.47;1.80;;;16.70;99.90;;;;;;5042537;28;20072;-70
2022/08/06 07:20:28;;;;;;;4.10;1.73;;;16.90;99.90;;;;;;5043471;28;20111;-70
2022/08/06 07:22:57;;;;;;;4.68;1.50;;;17.10;99.90;;;;;;5040959;28;20100;-70
2022/08/06 07:25:24;;;;;;;3.58;1.60;;;17.10;99.90;;;;;;5041864;28;20045;-70
2022/08/06 07:27:51;;;;;;;4.85;1.65;;;17.40;99.90;;;;;;5038031;28;20482;-70
2022/08/06 07:30:19;;;;;;;2.92;1.30;;;17.50;99.90;;;;;;5044331;28;20403;-70
2022/08/06 07:32:46;;;;;;;2.90;1.20;;;17.70;99.90;;;;;;5042101;28;20076;-70
2022/08/06 07:35:12;;;;;;;3.40;1.48;;;17.90;99.90;;;;;;5042087;28;20044;-70
2022/08/06 07:37:50;;;;;;;4.35;1.52;;;18.20;99.90;;;;;;5041216;28;20048;-70
2022/08/06 07:40:26;;;;;;;3.70;1.17;;;18.40;99.90;;;;;;5038163;28;20080;-70
2022/08/06 07:42:54;;;;;;;;;;;18.40;99.90;;;;;;5037663;28;20095;-69
2022/08/06 07:45:23;;;;;;;4.65;1.77;;;18.50;99.90;;;;;;5041313;28;19924;-70
2022/08/06 07:47:51;;;;;;;4.70;1.55;;;19.50;99.90;;;;;;5041481;28;20552;-68
2022/08/06 07:50:18;;;;;;;3.85;1.63;;;20.30;99.90;;;;;;5041807;28;20042;-69
2022/08/06 07:52:44;;;;;;;3.30;1.65;;;21.00;99.80;;;;;;5043412;28;20087;-70
2022/08/06 07:55:12;;;;;;;4.88;1.65;;;22.00;99.10;;;;;;5039420;28;20049;-69
2022/08/06 07:57:39;;;;;;;3.47;1.33;;;23.10;96.90;;;;;;5039031;28;20560;-71
2022/08/06 08:00:06;;;;;;;3.88;1.40;;;23.60;95.40;;;;;;5039637;28;20053;-70
2022/08/06 08:02:32;;;;;;;4.95;1.65;;;23.90;94.50;;;;;;5036885;28;20065;-71
2022/08/06 08:07:45;;;;;;;3.20;1.33;;;24.80;90.90;;;;;;5039433;28;20073;-71
2022/08/06 08:10:12;;;;;;;2.97;1.48;;;25.30;90.80;;;;;;5041966;28;20110;-71
2022/08/06 08:12:38;;;;;;;2.25;1.13;;;25.80;91.20;;;;;;5038969;28;20038;-71
2022/08/06 08:15:06;;;;;;;2.50;1.30;;;26.40;90.00;;;;;;5042269;28;20456;-71
2022/08/06 08:17:32;;;;;;;3.55;1.30;;;26.90;87.00;;;;;;5038374;28;20041;-71
2022/08/06 08:20:03;;;;;;;3.47;1.23;;;27.30;88.90;;;;;;5042049;28;20049;-71
2022/08/06 08:22:29;;;;;;;2.90;1.40;;;27.80;85.80;;;;;;5036971;28;20037;-71
2022/08/06 08:24:55;;;;;;;2.50;1.27;;;27.90;85.30;;;;;;5040963;28;20179;-70
2022/08/06 08:27:21;;;;;;;3.17;1.58;;;27.30;84.90;;;;;;5040931;28;20037;-71
2022/08/06 08:29:46;;;;;;;3.47;1.80;;;26.20;86.30;;;;;;5041412;28;20516;-71
2022/08/06 08:32:12;;;;;;;4.95;2.10;;;26.40;87.00;;;;;;5039356;28;20135;-70
2022/08/06 08:34:38;;;;;;;2.75;1.33;;;27.50;86.20;;;;;;5040860;28;20127;-71
2022/08/06 08:37:07;;;;;;;3.85;1.67;;;27.70;83.60;;;;;;5039320;28;20045;-71
2022/08/06 08:39:32;;;;;;;2.33;1.40;;;27.50;83.40;;;;;;5041102;28;20048;-71
2022/08/06 08:42:06;;;;;;;2.75;1.40;;;26.40;84.70;;;;;;5039548;28;20083;-70
2022/08/06 08:44:33;;;;;;;2.83;1.50;;;26.30;86.00;;;;;;5038662;28;20073;-71
2022/08/06 08:47:03;;;;;;;3.33;1.38;;;26.00;84.40;;;;;;5040938;28;20045;-70
2022/08/06 08:49:39;;;;;;;2.58;1.23;;;25.50;84.80;;;;;;5036650;28;20060;-70
2022/08/06 08:52:08;;;;;;;2.90;1.33;;;24.90;85.20;;;;;;5041141;28;20476;-70
2022/08/06 08:54:37;;;;;;;4.10;1.70;;;24.70;87.10;;;;;;5038453;28;20128;-71
2022/08/06 08:57:03;;;;;;;7.32;4.63;;;24.50;87.40;;;;;;5041756;28;20061;-71
2022/08/06 08:59:30;;;;;;;3.97;2.20;;;24.60;88.40;;;;;;5037435;28;20045;-71
2022/08/06 09:01:57;;;;;;;2.78;1.70;;;24.70;88.60;;;;;;5043230;28;20445;-71
2022/08/06 09:04:23;;;;;;;3.95;1.70;;;24.90;88.10;;;;;;5038863;28;20108;-70
2022/08/06 09:06:49;;;;;;;3.40;1.70;;;24.90;86.60;;;;;;5040874;28;20055;-71
2022/08/06 09:09:15;;;;;;;3.83;1.65;;;24.80;86.10;;;;;;5038993;28;20125;-71
2022/08/06 09:11:41;;;;;;;3.10;1.60;;;25.30;87.00;;;;;;5040848;28;20045;-70
2022/08/06 09:14:08;;;;;;;3.35;1.50;;;25.50;85.70;;;;;;5039945;28;20099;-71
2022/08/06 09:16:35;;;;;;;3.40;1.40;;;25.80;86.50;;;;;;5039993;28;20132;-70
2022/08/06 09:19:03;;;;;;;2.90;1.70;;;25.80;85.50;;;;;;5045988;28;20049;-71
2022/08/06 09:21:29;;;;;;;3.60;1.60;;;25.20;87.10;;;;;;5042572;28;20026;-70
2022/08/06 09:23:56;;;;;;;5.03;2.33;;;24.80;85.30;;;;;;5045276;28;20049;-70
2022/08/06 09:26:22;;;;;;;5.07;2.40;;;24.30;87.20;;;;;;5042074;28;20041;-70
2022/08/06 09:28:48;;;;;;;3.47;1.90;;;23.80;87.80;;;;;;5042673;28;20053;-70
2022/08/06 09:31:19;;;;;;;3.30;1.90;;;23.40;89.00;;;;;;5045505;28;20388;-70
2022/08/06 09:34:06;;;;;;;2.97;1.50;;;23.10;90.00;;;;;;5042225;28;20091;-70
2022/08/06 09:36:45;;;;;;;2.53;1.52;;;22.70;90.20;;;;;;5041045;28;20431;-70
2022/08/06 09:39:10;;;;;;;3.78;1.80;;;22.60;90.10;;;;;;5044268;28;20049;-70
2022/08/06 09:41:46;;;;;;;4.47;1.65;;;22.60;90.40;;;;;;5043871;28;20099;-70
2022/08/06 09:44:12;;;;;;;2.85;1.38;;;22.50;90.60;;;;;;5042316;28;20033;-69
2022/08/06 09:46:43;;;;;;;4.32;1.60;;;22.40;90.60;;;;;;5042925;28;20572;-70
2022/08/06 09:49:11;;;;;;;3.75;1.80;;;22.30;91.10;;;;;;5043869;28;20087;-70
2022/08/06 09:51:37;;;;;;;2.90;1.50;;;22.40;91.30;;;;;;5044128;28;20048;-70
2022/08/06 09:54:05;;;;;;;3.50;1.67;;;22.20;91.70;;;;;;5043587;28;20057;-70
2022/08/06 09:56:31;;;;;;;2.58;1.30;;;22.30;91.70;;;;;;5042378;28;20048;-70
2022/08/06 09:59:02;;;;;;;2.50;1.30;;;22.30;91.40;;;;;;5043525;28;20058;-70
2022/08/06 10:01:28;;;;;;;2.63;1.40;;;22.50;91.00;;;;;;5044503;28;20114;-70
2022/08/06 10:03:56;;;;;;;2.42;1.20;;;22.70;90.60;;;;;;5043181;28;20042;-70
2022/08/06 10:06:22;;;;;;;3.17;1.35;;;22.90;90.10;;;;;;5044107;28;20037;-70
2022/08/06 10:08:50;;;;;;;2.40;1.30;;;23.30;90.10;;;;;;5042221;28;20041;-70
2022/08/06 10:11:41;;;;;;;4.22;1.20;;;23.70;89.90;;;;;;5045556;28;20033;-70
2022/08/06 10:14:22;;;;;;;2.50;1.30;;;24.90;88.00;;;;;;5041038;28;20069;-70
2022/08/06 10:17:10;;;;;;;2.33;1.10;;;25.80;85.90;;;;;;5039890;28;20168;-71
2022/08/06 10:19:38;;;;;;;3.13;1.35;;;26.60;85.30;;;;;;5043033;28;20033;-70
2022/08/06 10:22:15;;;;;;;2.72;1.30;;;26.90;83.70;;;;;;5045140;28;20412;-71
2022/08/06 10:24:42;;;;;;;4.32;1.50;;;27.60;84.30;;;;;;5036699;28;20057;-70
2022/08/06 10:27:11;;;;;;;3.20;1.60;;;27.50;82.90;;;;;;5038667;28;20092;-71
2022/08/06 10:29:42;;;;;;;2.75;1.48;;;27.50;82.80;;;;;;5043299;28;20049;-71
2022/08/06 10:32:12;;;;;;;3.15;1.75;;;27.40;83.60;;;;;;5037543;28;20482;-71
2022/08/06 10:34:39;;;;;;;2.70;1.42;;;27.90;83.20;;;;;;5036889;28;20042;-70
2022/08/06 10:37:07;;;;;;;2.85;1.40;;;28.10;82.10;;;;;;5044154;28;20049;-71
2022/08/06 10:39:41;;;;;;;3.20;1.23;;;28.40;81.80;;;;;;5040672;28;20140;-70
2022/08/06 10:42:08;;;;;;;2.40;1.33;;;28.10;79.50;;;;;;5045678;28;20033;-70
2022/08/06 10:44:34;;;;;;;3.78;1.40;;;28.10;79.30;;;;;;5041445;28;20118;-71
2022/08/06 10:47:01;;;;;;;3.30;1.50;;;28.00;78.60;;;;;;5041783;28;20183;-71
2022/08/06 10:49:28;;;;;;;2.75;1.60;;;27.90;80.70;;;;;;5044835;28;20374;-71
2022/08/06 10:51:55;;;;;;;3.95;1.48;;;28.30;80.60;;;;;;5040781;28;20124;-70
2022/08/06 10:54:21;;;;;;;3.20;1.20;;;28.20;79.60;;;;;;5043951;28;20045;-70
2022/08/06 10:56:47;;;;;;;2.58;1.40;;;28.60;80.70;;;;;;5043913;28;20033;-71
2022/08/06 10:59:16;;;;;;;2.65;1.45;;;28.80;80.30;;;;;;5042453;28;20046;-71
2022/08/06 11:02:03;;;;;;;3.58;1.50;;;28.30;78.30;;;;;;5044638;28;20080;-70
2022/08/06 11:04:49;;;;;;;3.40;1.77;;;28.20;79.40;;;;;;5044850;28;20045;-71
2022/08/06 11:07:37;;;;;;;;;;;28.30;80.20;;;;;;5039419;28;20052;-71
2022/08/06 11:10:24;;;;;;;3.45;1.58;;;28.50;76.70;;;;;;5041783;28;19920;-71
2022/08/06 11:13:09;;;;;;;2.70;1.50;;;29.00;79.60;;;;;;5040844;28;20444;-70
2022/08/06 11:15:36;;;;;;;2.92;1.45;;;29.40;77.10;;;;;;5037526;28;20140;-71
2022/08/06 11:18:10;;;;;;;2.92;1.52;;;29.60;79.50;;;;;;5044985;28;20068;-71
2022/08/06 11:20:40;;;;;;;3.78;1.50;;;29.80;79.10;;;;;;5036783;28;20045;-71
2022/08/06 11:23:12;;;;;;;4.22;1.50;;;29.70;77.70;;;;;;5043021;28;20037;-71
2022/08/06 11:25:44;;;;;;;3.17;1.42;;;29.60;80.20;;;;;;5041051;28;20425;-70
2022/08/06 11:28:12;;;;;;;1.98;1.27;;;29.80;79.00;;;;;;5037372;28;20056;-71
2022/08/06 11:30:42;;;;;;;2.42;1.23;;;30.10;79.30;;;;;;5042514;28;20056;-71
2022/08/06 11:33:09;;;;;;;2.75;1.50;;;29.90;77.60;;;;;;5043175;28;20063;-71
2022/08/06 11:35:35;;;;;;;3.13;1.50;;;29.40;77.60;;;;;;5039881;28;20053;-71
2022/08/06 11:38:02;;;;;;;2.60;1.25;;;28.70;76.70;;;;;;5044266;28;20045;-71
2022/08/06 11:40:57;;;;;;;2.40;1.60;;;28.90;77.10;;;;;;5039128;28;20082;-70
2022/08/06 11:43:52;;;;;;;2.65;1.40;;;29.10;78.20;;;;;;5043043;28;20045;-70
2022/08/06 11:46:35;;;;;;;2.50;1.40;;;28.40;75.80;;;;;;5041729;28;20061;-70
2022/08/06 11:49:04;;;;;;;3.33;1.67;;;27.90;78.30;;;;;;5037276;28;20041;-70
2022/08/06 11:51:42;;;;;;;2.90;1.50;;;27.70;78.10;;;;;;5042789;28;20538;-70
2022/08/06 11:54:13;;;;;;;3.45;1.60;;;27.60;78.40;;;;;;5040891;28;20041;-71
2022/08/06 11:57:00;;;;;;;3.92;1.75;;;27.60;79.00;;;;;;5040518;28;20033;-70
2022/08/06 11:59:27;;;;;;;3.00;1.55;;;27.90;78.00;;;;;;5033349;28;20056;-69
2022/08/06 12:01:53;;;;;;;3.00;1.77;;;27.70;79.20;;;;;;5043587;28;20049;-70
2022/08/06 12:04:34;;;;;;;2.92;1.60;;;27.20;79.20;;;;;;5040049;28;20079;-70
2022/08/06 12:07:24;;;;;;;3.47;1.50;;;26.60;80.60;;;;;;5036729;28;20091;-70
2022/08/06 12:10:04;;;;;;;2.60;1.50;;;26.60;80.10;;;;;;5038471;28;20095;-70
2022/08/06 12:12:39;;;;;;;4.18;1.90;;;26.90;80.90;;;;;;5038479;28;20088;-70
2022/08/06 12:15:19;;;;;;;3.20;1.80;;;27.20;80.40;;;;;;5039379;28;20125;-70
2022/08/06 12:17:53;;;;;;;4.90;1.90;;;26.90;80.60;;;;;;5037222;28;20045;-70
2022/08/06 12:20:40;;;;;;;4.93;2.28;;;26.40;80.80;;;;;;5035302;28;20037;-70
2022/08/06 12:23:12;;;;;;;2.63;1.55;;;26.10;82.30;;;;;;5038668;28;20045;-71
2022/08/06 12:25:40;;;;;;;2.50;1.50;;;26.10;81.00;;;;;;5040404;28;20049;-71
2022/08/06 12:28:07;;;;;;;6.38;1.90;;;26.20;81.00;;;;;;5039477;28;20083;-70
2022/08/06 12:30:43;;;;;;;3.42;1.63;;;26.60;81.60;;;;;;5039341;28;20572;-70
2022/08/06 12:33:10;;;;;;;2.53;1.40;;;26.80;81.70;;;;;;5037970;28;20493;-71
2022/08/06 12:35:47;;;;;;;3.33;1.70;;;26.70;81.00;;;;;;5039976;28;20446;-70
2022/08/06 12:38:12;;;;;;;3.80;1.70;;;26.20;81.00;;;;;;5041707;28;20033;-70
2022/08/06 12:40:38;;;;;;;3.33;1.70;;;26.50;81.00;;;;;;5041128;28;20447;-70
2022/08/06 12:43:04;;;;;;;3.55;1.50;;;26.60;81.70;;;;;;5039565;28;20370;-70
2022/08/06 12:45:31;;;;;;;2.90;1.63;;;27.00;81.50;;;;;;5040681;28;20052;-71
2022/08/06 12:48:07;;;;;;;3.50;1.50;;;27.20;81.60;;;;;;5040476;28;20032;-70
2022/08/06 12:50:36;;;;;;;3.53;1.60;;;27.40;82.60;;;;;;5041931;28;20048;-70
2022/08/06 12:53:26;;;;;;;3.15;1.70;;;27.20;79.90;;;;;;5040310;28;20104;-70
2022/08/06 12:55:54;;;;;;;3.28;1.58;;;26.70;80.00;;;;;;5036194;28;20054;-70
2022/08/06 12:58:34;;;;;;;3.58;1.70;;;26.40;81.90;;;;;;5038981;28;20049;-70
2022/08/06 13:01:01;;;;;;;3.78;1.70;;;26.00;80.80;;;;;;5041288;28;20048;-70
2022/08/06 13:03:29;;;;;;;3.88;1.63;;;26.00;82.50;;;;;;5040119;28;20037;-70
2022/08/06 13:05:58;;;;;;;3.40;1.50;;;25.90;82.70;;;;;;5039899;28;20057;-70
2022/08/06 13:08:25;;;;;;;3.38;1.70;;;25.70;81.90;;;;;;5042079;28;20563;-70
2022/08/06 13:10:52;;;;;;;4.32;1.80;;;25.70;82.70;;;;;;5039305;28;20045;-70
2022/08/06 13:13:18;;;;;;;2.60;1.63;;;25.70;82.60;;;;;;5038000;28;20052;-70